Time;durP1;ratioP1;P1;durP2;ratioP2;P2;SDS_P1;SDS_P2;PMS_P1;PMS_P2;Temp;Humidity;BMP_temperature;BMP_pressure;BME280_temperature;BME280_humidity;BME280_pressure;Samples;Min_cycle;Max_cycle;Signal;HPM_P1;HPM_P2
2023/10/09 00:02:43;;;;;;;9.30;4.20;;;12.70;99.90;;;;;;480616;247;28472;-72
2023/10/09 00:04:45;;;;;;;8.40;4.97;;;12.70;99.90;;;;;;480503;247;28492;-72
2023/10/09 00:06:44;;;;;;;10.43;5.37;;;12.60;99.90;;;;;;480548;247;28907;-73
2023/10/09 00:08:50;;;;;;;8.23;4.57;;;;;;;;;;480544;247;29007;-72
2023/10/09 00:11:38;;;;;;;10.43;5.47;;;12.50;99.90;;;;;;480806;242;26610;-72
2023/10/09 00:12:52;;;;;;;7.63;5.00;;;12.60;99.90;;;;;;481167;246;28471;-72
2023/10/09 00:14:55;;;;;;;9.70;5.00;;;12.50;99.90;;;;;;480567;247;28502;-72
2023/10/09 00:17:44;;;;;;;8.37;4.53;;;12.50;99.90;;;;;;480519;247;28276;-72
2023/10/09 00:18:57;;;;;;;8.90;4.97;;;12.60;99.90;;;;;;481354;246;28968;-72
2023/10/09 00:21:00;;;;;;;10.83;5.27;;;12.70;99.90;;;;;;480441;245;28798;-72
2023/10/09 00:22:59;;;;;;;8.20;4.23;;;;;;;;;;480576;247;28910;-72
2023/10/09 00:25:14;;;;;;;9.70;4.87;;;12.70;99.90;;;;;;480653;246;27182;-73
2023/10/09 00:27:14;;;;;;;10.20;5.40;;;12.80;99.90;;;;;;480619;247;28061;-72
2023/10/09 00:29:36;;;;;;;11.50;4.50;;;12.80;99.90;;;;;;480593;247;29053;-72
2023/10/09 00:31:33;;;;;;;8.47;5.17;;;13.00;99.90;;;;;;480821;246;28229;-72
2023/10/09 00:33:32;;;;;;;8.83;4.17;;;13.00;99.90;;;;;;480580;247;28795;-72
2023/10/09 00:37:45;;;;;;;9.77;5.17;;;13.10;99.90;;;;;;480575;246;26893;-71
2023/10/09 00:39:48;;;;;;;11.53;4.70;;;13.20;99.90;;;;;;480536;247;28097;-73
2023/10/09 00:41:48;;;;;;;7.77;4.57;;;13.20;99.90;;;;;;480570;247;28344;-71
2023/10/09 00:43:52;;;;;;;10.47;5.30;;;13.20;99.90;;;;;;480614;247;28226;-71
2023/10/09 00:45:53;;;;;;;8.70;4.80;;;13.20;99.90;;;;;;480567;247;29394;-71
2023/10/09 00:48:01;;;;;;;9.57;4.27;;;13.20;99.90;;;;;;480627;247;28760;-72
2023/10/09 00:50:11;;;;;;;11.03;5.20;;;13.20;99.90;;;;;;480637;246;28816;-71
2023/10/09 00:52:03;;;;;;;8.30;4.40;;;13.10;99.90;;;;;;480602;246;28727;-71
2023/10/09 00:54:08;;;;;;;8.43;4.40;;;13.10;99.90;;;;;;480598;247;28427;-71
2023/10/09 00:58:30;;;;;;;9.07;4.87;;;13.40;99.90;;;;;;482881;246;29001;-71
2023/10/09 01:00:45;;;;;;;10.20;4.73;;;13.40;99.90;;;;;;475529;250;28979;-71
2023/10/09 01:02:36;;;;;;;9.43;4.90;;;13.40;99.90;;;;;;474841;250;28827;-71
2023/10/09 01:04:40;;;;;;;6.70;5.27;;;13.50;99.90;;;;;;475538;250;28360;-71
2023/10/09 01:06:43;;;;;;;12.60;4.63;;;13.50;99.90;;;;;;475356;250;28475;-71
2023/10/09 01:10:50;;;;;;;7.97;4.50;;;13.40;99.90;;;;;;475518;250;28272;-71
2023/10/09 01:12:46;;;;;;;7.90;4.60;;;13.40;99.90;;;;;;475101;250;28752;-72
2023/10/09 01:14:52;;;;;;;8.57;4.60;;;13.40;99.90;;;;;;475430;250;28585;-71
2023/10/09 01:16:47;;;;;;;8.93;4.57;;;13.40;99.90;;;;;;475158;250;28309;-71
2023/10/09 01:18:51;;;;;;;9.57;4.90;;;13.40;99.90;;;;;;475529;250;28431;-71
2023/10/09 01:20:52;;;;;;;8.17;4.97;;;;;;;;;;475339;250;28737;-72
2023/10/09 01:22:52;;;;;;;6.47;4.30;;;13.50;99.90;;;;;;475422;250;26508;-71
2023/10/09 01:24:55;;;;;;;9.00;4.50;;;13.50;99.90;;;;;;475521;250;28269;-71
2023/10/09 01:26:57;;;;;;;11.93;4.90;;;13.50;99.90;;;;;;475425;250;28348;-71
2023/10/09 01:28:57;;;;;;;18.73;5.20;;;13.50;99.90;;;;;;475369;250;28505;-71
2023/10/09 01:30:57;;;;;;;7.07;4.80;;;13.50;99.90;;;;;;475445;250;28578;-73
2023/10/09 01:33:05;;;;;;;10.60;5.20;;;13.50;99.90;;;;;;475547;250;28795;-71
2023/10/09 01:34:59;;;;;;;5.67;4.17;;;13.60;99.90;;;;;;474489;250;28954;-71
2023/10/09 01:37:11;;;;;;;12.43;4.83;;;13.60;99.90;;;;;;480591;247;29591;-71
2023/10/09 01:39:08;;;;;;;13.30;4.87;;;13.60;99.90;;;;;;480255;247;28097;-71
2023/10/09 01:41:07;;;;;;;6.20;4.40;;;13.60;99.90;;;;;;469664;253;28398;-70
2023/10/09 01:43:10;;;;;;;6.17;4.30;;;;;;;;;;469693;253;28430;-71
2023/10/09 01:45:26;;;;;;;7.93;4.37;;;13.50;99.90;;;;;;471730;248;27061;-71
2023/10/09 01:47:18;;;;;;;9.83;5.20;;;13.60;99.90;;;;;;480540;247;28360;-72
2023/10/09 01:49:21;;;;;;;10.43;4.60;;;13.60;99.90;;;;;;480225;247;28376;-71
2023/10/09 01:51:20;;;;;;;8.77;4.50;;;13.60;99.90;;;;;;469688;253;28932;-72
2023/10/09 01:53:23;;;;;;;9.23;4.70;;;13.70;99.90;;;;;;472052;252;28860;-71
2023/10/09 01:55:29;;;;;;;9.47;5.10;;;13.70;99.90;;;;;;480606;247;28657;-71
2023/10/09 01:57:26;;;;;;;10.53;4.30;;;13.70;99.90;;;;;;480247;246;28600;-72
2023/10/09 01:59:27;;;;;;;8.90;4.33;;;13.70;99.90;;;;;;469725;253;28684;-72
2023/10/09 02:01:28;;;;;;;8.23;4.50;;;13.70;99.90;;;;;;471983;252;28711;-72
2023/10/09 02:03:30;;;;;;;8.87;5.03;;;13.70;99.90;;;;;;480639;247;28331;-72
2023/10/09 02:05:33;;;;;;;12.23;5.57;;;13.70;99.90;;;;;;480233;247;28163;-71
2023/10/09 02:07:40;;;;;;;9.73;4.87;;;13.70;99.90;;;;;;480603;247;28163;-72
2023/10/09 02:09:34;;;;;;;8.70;3.97;;;13.70;99.90;;;;;;480279;247;28711;-73
2023/10/09 02:11:39;;;;;;;7.90;4.07;;;13.70;99.90;;;;;;469695;253;28485;-72
2023/10/09 02:13:41;;;;;;;7.27;4.60;;;13.70;99.90;;;;;;469723;253;28260;-72
2023/10/09 02:17:52;;;;;;;7.00;4.60;;;13.80;99.90;;;;;;469742;253;28360;-71
2023/10/09 02:19:52;;;;;;;9.83;4.60;;;13.80;99.90;;;;;;469685;253;28379;-72
2023/10/09 02:21:53;;;;;;;10.63;4.50;;;13.80;99.90;;;;;;469712;253;28351;-72
2023/10/09 02:23:56;;;;;;;8.60;4.77;;;13.80;99.90;;;;;;469709;253;28294;-72
2023/10/09 02:25:55;;;;;;;10.73;5.83;;;13.80;99.90;;;;;;469695;253;28270;-72
2023/10/09 02:27:59;;;;;;;9.00;4.67;;;13.90;99.90;;;;;;469731;247;28233;-72
2023/10/09 02:29:58;;;;;;;9.30;3.93;;;13.80;99.90;;;;;;469707;253;28328;-72
2023/10/09 02:32:13;;;;;;;11.40;4.87;;;13.80;99.90;;;;;;469615;253;28762;-73
2023/10/09 02:34:04;;;;;;;9.47;4.47;;;13.80;99.90;;;;;;469645;253;28917;-73
2023/10/09 02:36:05;;;;;;;8.83;4.20;;;13.80;99.90;;;;;;469692;253;28970;-72
2023/10/09 02:38:06;;;;;;;8.10;3.83;;;13.80;99.90;;;;;;469690;253;28406;-72
2023/10/09 02:40:08;;;;;;;6.13;3.77;;;13.80;99.90;;;;;;469705;248;28607;-73
2023/10/09 02:42:28;;;;;;;10.93;5.07;;;13.90;99.90;;;;;;469703;253;28362;-72
2023/10/09 02:44:11;;;;;;;7.73;4.30;;;13.90;99.90;;;;;;468045;253;28264;-72
2023/10/09 02:46:41;;;;;;;10.90;4.80;;;13.90;99.90;;;;;;469688;253;28206;-72
2023/10/09 02:48:15;;;;;;;8.43;4.93;;;13.90;99.90;;;;;;467624;253;28250;-72
2023/10/09 02:50:22;;;;;;;5.90;4.07;;;13.80;99.90;;;;;;472037;252;28456;-72
2023/10/09 02:52:32;;;;;;;9.33;4.13;;;13.70;99.90;;;;;;480560;247;28584;-72
2023/10/09 02:56:36;;;;;;;11.33;4.53;;;13.80;99.90;;;;;;472480;252;28917;-72
2023/10/09 02:58:26;;;;;;;7.03;3.87;;;13.80;99.90;;;;;;480569;247;28338;-72
2023/10/09 03:00:31;;;;;;;11.17;4.60;;;13.70;99.90;;;;;;480612;247;28258;-74
2023/10/09 03:02:32;;;;;;;7.07;4.10;;;13.70;99.90;;;;;;480632;247;28168;-73
2023/10/09 03:04:33;;;;;;;6.93;3.70;;;13.70;99.90;;;;;;480617;247;28207;-72
2023/10/09 03:06:38;;;;;;;5.00;3.80;;;13.70;99.90;;;;;;480645;247;28644;-72
2023/10/09 03:08:36;;;;;;;10.10;4.10;;;13.70;99.90;;;;;;480612;247;29419;-72
2023/10/09 03:10:38;;;;;;;10.83;4.87;;;13.70;99.90;;;;;;480604;247;28572;-72
2023/10/09 03:12:39;;;;;;;17.00;5.00;;;13.70;99.90;;;;;;480635;247;28227;-72
2023/10/09 03:14:41;;;;;;;11.27;4.63;;;13.70;99.90;;;;;;480624;247;28135;-72
2023/10/09 03:16:41;;;;;;;5.33;3.93;;;13.70;99.90;;;;;;480603;247;28358;-73
2023/10/09 03:18:42;;;;;;;6.97;4.13;;;13.70;99.90;;;;;;480581;246;28634;-72
2023/10/09 03:20:44;;;;;;;12.40;4.77;;;13.70;99.90;;;;;;480607;247;28247;-73
2023/10/09 03:22:45;;;;;;;8.07;4.03;;;13.70;99.90;;;;;;480613;247;28230;-73
2023/10/09 03:24:46;;;;;;;8.40;4.50;;;13.80;99.90;;;;;;480627;247;28182;-72
2023/10/09 03:26:47;;;;;;;7.00;4.70;;;13.70;99.90;;;;;;480622;247;28974;-72
2023/10/09 03:28:48;;;;;;;8.83;4.40;;;13.80;99.90;;;;;;480401;247;29015;-73
2023/10/09 03:30:50;;;;;;;8.80;4.90;;;13.80;99.90;;;;;;480612;246;28956;-73
2023/10/09 03:32:51;;;;;;;8.40;4.40;;;13.70;99.90;;;;;;480589;247;28623;-72
2023/10/09 03:34:52;;;;;;;7.20;3.47;;;13.70;99.90;;;;;;480603;247;28108;-72
2023/10/09 03:37:03;;;;;;;9.97;4.53;;;13.70;99.90;;;;;;480608;247;28127;-72
2023/10/09 03:39:07;;;;;;;8.20;4.33;;;13.70;99.90;;;;;;480545;247;28200;-74
2023/10/09 03:41:05;;;;;;;7.17;4.33;;;13.70;99.90;;;;;;480580;247;28233;-72
2023/10/09 03:43:04;;;;;;;14.10;4.83;;;13.70;99.90;;;;;;480568;247;28485;-72
2023/10/09 03:45:12;;;;;;;9.93;4.80;;;13.70;99.90;;;;;;480618;247;28985;-72
2023/10/09 03:47:09;;;;;;;12.57;4.80;;;13.70;99.90;;;;;;480592;247;28678;-72
2023/10/09 03:49:10;;;;;;;13.33;4.43;;;13.60;99.90;;;;;;480635;247;28744;-73
2023/10/09 03:51:13;;;;;;;9.47;4.40;;;13.60;99.90;;;;;;480609;247;28226;-73
2023/10/09 03:53:12;;;;;;;6.60;4.10;;;13.60;99.90;;;;;;480652;246;28444;-73
2023/10/09 03:55:11;;;;;;;10.33;3.97;;;13.60;99.90;;;;;;480600;247;28319;-73
2023/10/09 03:57:14;;;;;;;9.30;5.03;;;13.60;99.90;;;;;;480621;247;28221;-72
2023/10/09 03:59:16;;;;;;;13.70;4.80;;;13.70;99.90;;;;;;480606;247;28381;-73
2023/10/09 04:01:29;;;;;;;6.50;4.40;;;13.60;99.90;;;;;;480624;247;28181;-72
2023/10/09 04:03:30;;;;;;;10.10;4.20;;;13.60;99.90;;;;;;480598;247;28260;-72
2023/10/09 04:05:32;;;;;;;8.43;4.70;;;13.60;99.90;;;;;;480618;247;28813;-72
2023/10/09 04:07:33;;;;;;;11.40;4.90;;;13.50;99.90;;;;;;480615;247;28719;-73
2023/10/09 04:09:39;;;;;;;10.33;4.40;;;13.50;99.90;;;;;;480636;247;29050;-72
2023/10/09 04:11:42;;;;;;;9.37;4.23;;;13.50;99.90;;;;;;480598;247;28128;-72
2023/10/09 04:13:40;;;;;;;10.40;4.47;;;13.50;99.90;;;;;;480587;247;28629;-72
2023/10/09 04:15:42;;;;;;;6.73;3.50;;;13.50;99.90;;;;;;480634;247;28611;-74
2023/10/09 04:17:43;;;;;;;9.53;4.50;;;13.50;99.90;;;;;;480602;247;28776;-72
2023/10/09 04:20:24;;;;;;;6.50;4.13;;;13.50;99.90;;;;;;480626;247;28152;-72
2023/10/09 04:21:55;;;;;;;8.03;3.93;;;;;;;;;;480532;247;28226;-72
2023/10/09 04:26:14;;;;;;;6.33;3.80;;;13.40;99.90;;;;;;459946;247;28411;-72
2023/10/09 04:28:22;;;;;;;6.50;4.30;;;13.40;99.90;;;;;;458177;257;28308;-72
2023/10/09 04:30:23;;;;;;;11.97;4.47;;;13.40;99.90;;;;;;465842;255;28397;-73
2023/10/09 04:32:25;;;;;;;7.27;3.90;;;13.40;99.90;;;;;;461581;257;28370;-72
2023/10/09 04:36:35;;;;;;;8.80;5.00;;;13.50;99.90;;;;;;458175;258;29105;-73
2023/10/09 04:38:26;;;;;;;13.53;4.80;;;13.50;99.90;;;;;;461498;257;28649;-72
2023/10/09 04:42:58;;;;;;;10.37;4.50;;;13.50;99.90;;;;;;461710;257;28309;-72
2023/10/09 04:49:27;;;;;;;9.10;4.73;;;13.50;99.90;;;;;;462132;257;28570;-71
2023/10/09 04:51:36;;;;;;;14.03;4.60;;;13.50;99.90;;;;;;465870;255;28254;-72
2023/10/09 04:53:43;;;;;;;8.53;4.27;;;13.50;99.90;;;;;;461623;257;28902;-73
2023/10/09 04:55:38;;;;;;;11.23;5.80;;;13.50;99.90;;;;;;461254;257;29600;-72
2023/10/09 04:57:45;;;;;;;8.30;4.30;;;13.60;99.90;;;;;;458132;255;28275;-72
2023/10/09 04:59:47;;;;;;;27.33;4.40;;;13.60;99.90;;;;;;461671;257;28365;-72
2023/10/09 05:01:57;;;;;;;8.47;4.73;;;13.50;99.90;;;;;;465814;255;28345;-72
2023/10/09 05:07:57;;;;;;;11.40;4.50;;;13.60;99.90;;;;;;458178;258;28391;-72
2023/10/09 05:12:15;;;;;;;10.53;4.40;;;13.50;99.90;;;;;;459463;259;28448;-74
2023/10/09 05:14:13;;;;;;;12.23;4.70;;;13.50;99.90;;;;;;459309;259;29026;-72
2023/10/09 05:16:25;;;;;;;10.50;4.20;;;13.50;99.90;;;;;;452078;263;28838;-72
2023/10/09 05:18:27;;;;;;;10.80;4.77;;;13.50;99.90;;;;;;459873;258;28401;-72
2023/10/09 05:22:38;;;;;;;13.70;4.67;;;13.50;99.90;;;;;;459550;259;28298;-72
2023/10/09 05:24:45;;;;;;;8.07;4.00;;;13.50;99.90;;;;;;452091;263;29699;-72
2023/10/09 05:28:52;;;;;;;11.43;5.20;;;13.40;99.90;;;;;;452847;262;28327;-73
2023/10/09 05:31:02;;;;;;;12.00;4.20;;;13.40;99.90;;;;;;452803;262;28349;-72
2023/10/09 05:32:58;;;;;;;14.13;6.17;;;13.40;99.90;;;;;;452273;262;28390;-72
2023/10/09 05:37:22;;;;;;;22.33;9.80;;;13.40;99.90;;;;;;452905;262;27288;-73
2023/10/09 05:39:41;;;;;;;14.10;6.90;;;13.40;99.90;;;;;;452612;262;28988;-72
2023/10/09 05:41:59;;;;;;;17.90;7.07;;;13.40;99.90;;;;;;452302;262;28952;-73
2023/10/09 05:48:48;;;;;;;11.50;5.03;;;13.50;99.90;;;;;;452960;256;28984;-72
2023/10/09 05:52:32;;;;;;;12.80;5.07;;;13.40;99.90;;;;;;463663;256;28604;-72
2023/10/09 05:54:23;;;;;;;8.77;4.67;;;13.40;99.90;;;;;;462688;256;28204;-73
2023/10/09 06:05:40;;;;;;;10.40;4.10;;;13.60;99.90;;;;;;461427;256;28765;-73
2023/10/09 06:08:04;;;;;;;12.83;4.63;;;;;;;;;;469802;253;28271;-72
2023/10/09 06:09:56;;;;;;;12.83;4.13;;;13.60;99.90;;;;;;470284;252;26472;-72
2023/10/09 06:12:33;;;;;;;12.57;5.47;;;13.60;99.90;;;;;;470431;253;28363;-72
2023/10/09 06:14:04;;;;;;;10.47;4.73;;;13.60;99.90;;;;;;468553;253;28716;-72
2023/10/09 06:16:19;;;;;;;15.07;4.67;;;13.60;99.90;;;;;;470454;252;28576;-73
2023/10/09 06:22:58;;;;;;;7.30;3.93;;;13.70;99.90;;;;;;464937;253;28193;-72
2023/10/09 06:25:08;;;;;;;11.47;4.13;;;13.70;99.90;;;;;;470424;253;28263;-74
2023/10/09 06:29:30;;;;;;;8.70;4.00;;;13.70;99.90;;;;;;470347;252;28187;-72
2023/10/09 06:33:29;;;;;;;12.07;5.50;;;13.70;99.90;;;;;;461905;253;28328;-72
2023/10/09 06:35:23;;;;;;;11.00;4.93;;;13.70;99.90;;;;;;469841;253;28406;-74
2023/10/09 06:41:59;;;;;;;14.17;5.13;;;13.70;99.90;;;;;;470461;252;28285;-73
2023/10/09 06:43:52;;;;;;;7.93;4.47;;;13.70;99.90;;;;;;469250;253;28210;-72
2023/10/09 06:45:54;;;;;;;8.17;4.20;;;13.80;99.90;;;;;;469909;253;28478;-72
2023/10/09 06:52:57;;;;;;;10.47;4.60;;;13.80;99.90;;;;;;470447;252;28647;-72
2023/10/09 06:54:25;;;;;;;12.73;5.20;;;13.80;99.90;;;;;;468590;253;28412;-73
2023/10/09 07:02:53;;;;;;;13.17;5.40;;;13.80;99.90;;;;;;470441;253;28328;-72
2023/10/09 07:04:55;;;;;;;14.73;5.27;;;13.90;99.90;;;;;;470420;253;28761;-73
2023/10/09 07:06:56;;;;;;;14.70;5.40;;;13.80;99.90;;;;;;470369;253;28924;-72
2023/10/09 07:11:21;;;;;;;19.03;4.93;;;13.90;99.90;;;;;;462480;253;28371;-73
2023/10/09 07:13:01;;;;;;;18.13;5.27;;;13.90;99.90;;;;;;468604;253;28279;-73
2023/10/09 07:17:21;;;;;;;11.70;4.77;;;14.00;99.90;;;;;;470423;253;28374;-72
2023/10/09 07:21:38;;;;;;;11.50;5.07;;;14.10;99.90;;;;;;470445;253;28766;-72
2023/10/09 07:23:47;;;;;;;10.47;4.50;;;14.10;99.90;;;;;;470334;253;28984;-72
2023/10/09 07:25:54;;;;;;;8.27;4.03;;;14.10;99.90;;;;;;469540;253;28448;-72
2023/10/09 07:27:43;;;;;;;12.37;4.60;;;14.20;99.90;;;;;;469324;252;28385;-72
2023/10/09 07:29:50;;;;;;;11.87;4.60;;;14.20;99.90;;;;;;470432;252;28489;-72
2023/10/09 07:31:57;;;;;;;12.30;5.07;;;14.30;99.90;;;;;;470438;252;28274;-72
2023/10/09 07:33:59;;;;;;;12.30;4.50;;;14.30;99.90;;;;;;470016;253;28805;-72
2023/10/09 07:36:05;;;;;;;13.13;5.10;;;14.30;99.90;;;;;;470409;252;28985;-73
2023/10/09 07:38:02;;;;;;;10.87;4.67;;;14.40;99.90;;;;;;470044;253;29242;-72
2023/10/09 07:40:07;;;;;;;10.63;4.90;;;14.40;99.90;;;;;;470369;253;28994;-73
2023/10/09 07:42:15;;;;;;;9.60;4.60;;;14.40;99.90;;;;;;470081;253;28821;-74
2023/10/09 07:44:19;;;;;;;9.80;5.40;;;14.40;99.90;;;;;;469435;253;28569;-72
2023/10/09 07:48:14;;;;;;;11.73;5.00;;;14.40;99.90;;;;;;470309;252;28425;-73
2023/10/09 07:50:11;;;;;;;19.30;5.53;;;14.50;99.90;;;;;;469786;253;29393;-73
2023/10/09 07:52:13;;;;;;;18.43;5.20;;;14.50;99.90;;;;;;470368;252;29377;-72
2023/10/09 07:54:31;;;;;;;7.17;4.10;;;14.60;99.90;;;;;;470368;252;28382;-73
2023/10/09 07:56:20;;;;;;;6.80;4.53;;;14.60;99.90;;;;;;469112;253;29400;-73
2023/10/09 07:58:24;;;;;;;16.57;4.80;;;14.60;99.90;;;;;;470058;253;28462;-72
2023/10/09 08:00:36;;;;;;;11.97;4.13;;;14.70;99.90;;;;;;469992;253;28839;-72
2023/10/09 08:02:38;;;;;;;19.70;5.50;;;14.70;99.90;;;;;;470368;253;28895;-72
2023/10/09 08:04:53;;;;;;;7.63;4.43;;;14.80;99.90;;;;;;470382;253;28460;-73
2023/10/09 08:06:53;;;;;;;14.70;4.73;;;14.80;99.90;;;;;;470301;253;29310;-72
2023/10/09 08:13:56;;;;;;;11.13;4.50;;;15.00;99.90;;;;;;459616;254;28859;-72
2023/10/09 08:15:52;;;;;;;16.00;5.37;;;15.00;99.90;;;;;;459623;258;28831;-72
2023/10/09 08:18:03;;;;;;;12.80;5.20;;;15.10;99.90;;;;;;459596;258;28847;-72
2023/10/09 08:20:11;;;;;;;11.33;4.53;;;15.10;99.90;;;;;;459598;258;29451;-72
2023/10/09 08:22:52;;;;;;;13.40;4.60;;;15.10;99.90;;;;;;459550;258;29293;-71
2023/10/09 08:24:04;;;;;;;7.23;4.27;;;15.20;99.90;;;;;;460257;256;29446;-72
2023/10/09 08:26:13;;;;;;;10.80;4.40;;;15.30;99.90;;;;;;459575;258;28945;-72
2023/10/09 08:32:38;;;;;;;12.70;4.60;;;15.40;99.90;;;;;;459596;258;28878;-72
2023/10/09 08:34:26;;;;;;;13.23;5.03;;;15.40;99.90;;;;;;459609;258;28862;-74
2023/10/09 08:36:51;;;;;;;14.03;5.00;;;15.40;99.90;;;;;;459608;258;28975;-72
2023/10/09 08:38:34;;;;;;;15.20;5.03;;;15.40;99.90;;;;;;459811;257;29477;-72
2023/10/09 08:40:46;;;;;;;10.60;4.30;;;15.50;99.90;;;;;;459592;258;29401;-72
2023/10/09 08:42:36;;;;;;;8.97;4.20;;;15.50;99.90;;;;;;459731;257;29317;-73
2023/10/09 08:44:39;;;;;;;10.90;5.07;;;15.60;99.90;;;;;;461285;253;28847;-72
2023/10/09 08:46:39;;;;;;;9.90;4.60;;;15.60;99.90;;;;;;470370;253;28829;-72
2023/10/09 08:48:40;;;;;;;13.77;5.80;;;15.70;99.90;;;;;;470419;252;28803;-72
2023/10/09 08:50:45;;;;;;;13.27;5.00;;;15.80;99.90;;;;;;470442;252;28894;-72
2023/10/09 08:52:43;;;;;;;8.80;4.33;;;15.80;99.90;;;;;;470180;253;28906;-71
2023/10/09 08:54:44;;;;;;;14.80;5.40;;;15.90;99.90;;;;;;470449;252;28809;-71
2023/10/09 08:56:51;;;;;;;12.87;5.13;;;15.90;99.90;;;;;;470428;253;28922;-71
2023/10/09 08:58:53;;;;;;;18.70;5.40;;;15.90;99.90;;;;;;470439;253;29396;-71
2023/10/09 09:00:55;;;;;;;12.20;5.13;;;16.00;99.90;;;;;;470424;253;28859;-71
2023/10/09 09:02:55;;;;;;;10.50;3.87;;;16.00;99.90;;;;;;470360;251;28829;-72
2023/10/09 09:04:57;;;;;;;11.27;5.00;;;16.10;99.90;;;;;;469445;245;28955;-72
2023/10/09 09:06:58;;;;;;;9.87;4.60;;;16.10;99.90;;;;;;463639;256;28929;-71
2023/10/09 09:08:59;;;;;;;14.00;5.10;;;16.20;99.90;;;;;;463636;256;28963;-72
2023/10/09 09:11:11;;;;;;;11.47;4.60;;;16.20;99.90;;;;;;463608;256;28976;-72
2023/10/09 09:13:03;;;;;;;11.53;5.17;;;16.20;99.90;;;;;;463509;256;29337;-72
2023/10/09 09:15:03;;;;;;;14.43;5.23;;;16.20;99.90;;;;;;463563;256;29528;-72
2023/10/09 09:17:05;;;;;;;10.00;4.70;;;16.30;99.90;;;;;;463638;256;29404;-72
2023/10/09 09:19:17;;;;;;;10.40;4.90;;;16.30;99.90;;;;;;462963;256;28993;-72
2023/10/09 09:21:07;;;;;;;13.27;5.23;;;16.40;99.90;;;;;;462950;256;29044;-72
2023/10/09 09:23:08;;;;;;;9.50;4.67;;;16.50;99.90;;;;;;463248;256;28949;-71
2023/10/09 09:25:09;;;;;;;9.77;4.83;;;16.50;99.90;;;;;;463522;256;28999;-73
2023/10/09 09:27:12;;;;;;;7.73;4.47;;;16.50;99.90;;;;;;463610;256;28868;-71
2023/10/09 09:29:11;;;;;;;11.20;4.23;;;16.50;99.90;;;;;;463623;256;29009;-72
2023/10/09 09:31:13;;;;;;;11.97;4.57;;;16.40;99.90;;;;;;463633;256;28853;-72
2023/10/09 09:33:20;;;;;;;10.20;4.00;;;16.40;99.90;;;;;;463642;251;29496;-71
2023/10/09 09:35:19;;;;;;;11.40;4.43;;;16.50;99.90;;;;;;463608;252;28911;-71
2023/10/09 09:37:20;;;;;;;12.13;4.90;;;16.60;99.90;;;;;;463638;256;28977;-72
2023/10/09 09:39:26;;;;;;;11.40;4.80;;;16.70;99.90;;;;;;463624;256;29432;-74
2023/10/09 09:41:25;;;;;;;13.60;4.40;;;16.80;99.90;;;;;;463577;256;28925;-73
2023/10/09 09:43:28;;;;;;;26.73;4.93;;;17.00;99.90;;;;;;463604;256;28934;-73
2023/10/09 09:45:28;;;;;;;8.37;4.73;;;17.10;99.90;;;;;;463618;256;29047;-73
2023/10/09 09:47:29;;;;;;;14.43;4.63;;;17.20;99.90;;;;;;463623;256;29006;-73
2023/10/09 09:49:33;;;;;;;10.30;4.20;;;17.20;99.90;;;;;;463606;256;29178;-73
2023/10/09 09:51:31;;;;;;;14.93;4.80;;;17.30;99.90;;;;;;463506;255;29056;-75
2023/10/09 09:53:34;;;;;;;15.90;5.50;;;17.30;99.90;;;;;;463620;256;29443;-72
2023/10/09 09:55:34;;;;;;;9.57;3.93;;;17.20;99.90;;;;;;463605;256;29445;-73
2023/10/09 09:57:39;;;;;;;9.80;4.93;;;17.20;99.90;;;;;;463634;256;29574;-73
2023/10/09 09:59:36;;;;;;;13.20;4.53;;;17.20;99.90;;;;;;463581;256;28957;-72
2023/10/09 10:01:39;;;;;;;14.50;4.50;;;17.20;99.90;;;;;;463631;252;28959;-74
2023/10/09 10:03:39;;;;;;;8.67;4.23;;;17.30;99.90;;;;;;463623;256;28922;-74
2023/10/09 10:05:41;;;;;;;12.97;4.30;;;17.30;99.90;;;;;;463641;256;28978;-71
2023/10/09 10:07:43;;;;;;;11.30;5.00;;;17.20;99.90;;;;;;463587;256;28862;-71
2023/10/09 10:09:48;;;;;;;8.50;3.60;;;17.20;99.90;;;;;;463597;256;28933;-73
2023/10/09 10:11:51;;;;;;;8.90;4.00;;;17.20;99.90;;;;;;463602;256;28923;-73
2023/10/09 10:13:48;;;;;;;8.00;3.77;;;17.20;99.90;;;;;;463580;256;28968;-73
2023/10/09 10:15:49;;;;;;;8.43;3.90;;;17.30;99.90;;;;;;463660;256;29038;-73
2023/10/09 10:17:51;;;;;;;8.87;4.00;;;17.30;99.90;;;;;;463620;256;28876;-73
2023/10/09 10:19:52;;;;;;;10.30;3.80;;;17.40;99.90;;;;;;463622;251;28867;-73
2023/10/09 10:21:53;;;;;;;9.13;4.33;;;17.40;99.90;;;;;;463628;256;28920;-72
2023/10/09 10:24:05;;;;;;;9.77;4.67;;;17.50;99.90;;;;;;463580;256;29442;-73
2023/10/09 10:26:00;;;;;;;11.53;3.83;;;17.50;99.90;;;;;;463504;256;29506;-74
2023/10/09 10:28:09;;;;;;;8.83;3.87;;;17.50;99.90;;;;;;463599;256;28936;-73
2023/10/09 10:30:01;;;;;;;16.90;4.90;;;17.50;99.90;;;;;;463544;256;28957;-73
2023/10/09 10:32:08;;;;;;;11.40;4.50;;;17.50;99.90;;;;;;463618;256;28967;-74
2023/10/09 10:34:10;;;;;;;9.17;3.77;;;17.50;99.90;;;;;;463628;256;29393;-72
2023/10/09 10:36:15;;;;;;;12.20;4.30;;;17.50;99.90;;;;;;463623;252;29476;-72
2023/10/09 10:38:15;;;;;;;9.80;4.80;;;17.60;99.90;;;;;;463599;256;29456;-72
2023/10/09 10:40:15;;;;;;;8.57;3.67;;;17.60;99.90;;;;;;463623;256;28917;-71
2023/10/09 10:42:33;;;;;;;7.83;3.80;;;17.70;99.90;;;;;;463525;256;28959;-75
2023/10/09 10:44:34;;;;;;;9.57;4.00;;;17.70;99.90;;;;;;463427;256;28989;-72
2023/10/09 10:46:38;;;;;;;7.50;3.97;;;17.80;99.90;;;;;;463607;256;28878;-73
2023/10/09 10:48:39;;;;;;;9.17;3.90;;;17.90;99.90;;;;;;463585;256;28837;-73
2023/10/09 10:50:45;;;;;;;11.83;4.30;;;18.00;99.90;;;;;;463601;251;28942;-75
2023/10/09 10:52:44;;;;;;;8.90;4.47;;;18.00;99.90;;;;;;463121;252;28966;-71
2023/10/09 10:55:17;;;;;;;7.90;4.10;;;18.00;99.90;;;;;;463598;256;28998;-74
2023/10/09 10:56:51;;;;;;;11.30;4.47;;;18.00;99.90;;;;;;463376;256;29375;-73
2023/10/09 10:59:11;;;;;;;9.60;3.67;;;18.00;99.90;;;;;;463533;256;29363;-74
2023/10/09 11:03:17;;;;;;;13.43;4.23;;;18.00;99.90;;;;;;463607;256;29400;-72
2023/10/09 11:05:25;;;;;;;6.80;3.67;;;18.00;99.90;;;;;;463582;256;29024;-72
2023/10/09 11:07:27;;;;;;;14.07;3.80;;;17.90;99.90;;;;;;463638;256;29281;-72
2023/10/09 11:09:37;;;;;;;7.83;3.90;;;17.90;99.90;;;;;;463610;256;28905;-73
2023/10/09 11:11:32;;;;;;;15.67;4.67;;;18.00;99.90;;;;;;463176;256;28966;-73
2023/10/09 11:13:37;;;;;;;7.30;4.23;;;18.00;99.90;;;;;;463577;256;28849;-71
2023/10/09 11:17:58;;;;;;;9.00;3.93;;;18.20;99.90;;;;;;463627;256;29450;-74
2023/10/09 11:19:58;;;;;;;13.80;4.60;;;18.40;99.90;;;;;;463609;256;28934;-72
2023/10/09 11:22:27;;;;;;;11.67;4.47;;;18.50;99.90;;;;;;463633;256;29029;-72
2023/10/09 11:24:24;;;;;;;7.60;4.20;;;18.60;99.90;;;;;;463347;256;29006;-74
2023/10/09 11:28:42;;;;;;;12.77;4.80;;;18.90;99.90;;;;;;463624;256;28947;-74
2023/10/09 11:30:32;;;;;;;10.40;4.17;;;19.10;99.90;;;;;;463487;256;28884;-75
2023/10/09 11:32:33;;;;;;;11.90;4.17;;;19.10;99.90;;;;;;463603;256;28866;-75
2023/10/09 11:34:37;;;;;;;10.80;4.40;;;19.20;99.90;;;;;;463630;256;28934;-74
2023/10/09 11:36:35;;;;;;;10.53;4.03;;;19.20;99.90;;;;;;463491;255;29513;-74
2023/10/09 11:38:36;;;;;;;7.73;4.43;;;19.20;99.90;;;;;;463604;256;29376;-73
2023/10/09 11:42:57;;;;;;;8.43;4.60;;;19.20;99.90;;;;;;463631;256;28902;-72
2023/10/09 11:44:55;;;;;;;9.60;4.80;;;19.00;99.90;;;;;;463574;256;28981;-74
2023/10/09 11:46:58;;;;;;;10.47;4.30;;;18.90;99.90;;;;;;463609;256;28850;-76
2023/10/09 11:49:14;;;;;;;11.00;4.17;;;18.80;99.90;;;;;;463614;256;29286;-74
2023/10/09 11:53:17;;;;;;;6.97;4.10;;;18.50;99.90;;;;;;463618;256;28995;-74
2023/10/09 11:55:14;;;;;;;15.90;5.10;;;18.40;99.90;;;;;;463518;256;29488;-74
2023/10/09 11:57:12;;;;;;;11.50;4.90;;;18.30;99.90;;;;;;463586;256;29449;-73
2023/10/09 11:59:16;;;;;;;6.17;3.80;;;18.30;99.90;;;;;;463616;256;29438;-74
2023/10/09 12:01:20;;;;;;;10.50;4.00;;;18.40;99.90;;;;;;463599;256;28927;-73
2023/10/09 12:03:16;;;;;;;11.63;4.30;;;18.40;99.90;;;;;;463523;255;28866;-74
2023/10/09 12:05:17;;;;;;;8.53;3.97;;;18.50;99.90;;;;;;463512;256;28985;-75
2023/10/09 12:07:20;;;;;;;11.00;4.27;;;18.70;99.90;;;;;;463634;256;28911;-74
2023/10/09 12:09:24;;;;;;;11.40;4.17;;;18.70;99.90;;;;;;463575;256;28972;-74
2023/10/09 12:11:28;;;;;;;6.93;3.63;;;18.80;99.90;;;;;;463603;256;28932;-74
2023/10/09 12:13:25;;;;;;;10.20;4.83;;;18.80;99.90;;;;;;463423;256;28923;-74
2023/10/09 12:15:36;;;;;;;9.97;4.17;;;18.90;99.90;;;;;;463566;251;29410;-72
2023/10/09 12:17:27;;;;;;;7.50;4.20;;;18.90;99.90;;;;;;463512;256;29464;-73
2023/10/09 12:19:29;;;;;;;10.13;4.30;;;18.90;99.90;;;;;;463619;256;29405;-74